createdAt,value
2022-11-12T00:00:30.046Z,6.10
2022-11-12T00:02:32.641Z,6.10
2022-11-12T00:04:35.199Z,6.11
2022-11-12T00:06:37.963Z,6.10
2022-11-12T00:08:40.584Z,6.01
2022-11-12T00:10:43.196Z,6.02
2022-11-12T00:12:45.889Z,6.09
2022-11-12T00:14:49.810Z,6.05
2022-11-12T00:16:52.394Z,6.04
2022-11-12T00:18:55.039Z,6.02
2022-11-12T00:20:57.847Z,6.06
2022-11-12T00:23:00.524Z,6.01
2022-11-12T00:25:03.240Z,6.02
2022-11-12T00:27:05.874Z,6.00
2022-11-12T00:29:08.439Z,6.06
2022-11-12T00:31:13.313Z,6.08
2022-11-12T00:33:15.893Z,6.09
2022-11-12T00:35:18.613Z,6.13
2022-11-12T00:37:23.130Z,6.12
2022-11-12T00:39:25.837Z,6.14
2022-11-12T00:41:28.464Z,6.12
2022-11-12T00:43:31.247Z,6.06
2022-11-12T00:45:33.840Z,6.04
2022-11-12T00:47:37.815Z,6.08
2022-11-12T00:49:40.385Z,6.08
2022-11-12T00:51:43.507Z,6.09
2022-11-12T00:53:48.855Z,6.10
2022-11-12T00:55:51.431Z,6.07
2022-11-12T00:57:54.023Z,6.09
2022-11-12T00:59:56.714Z,6.08
2022-11-12T01:01:59.276Z,6.05
2022-11-12T01:04:03.324Z,6.09
2022-11-12T01:06:07.247Z,6.08
2022-11-12T01:08:09.853Z,6.10
2022-11-12T01:10:15.620Z,6.07
2022-11-12T01:12:18.270Z,6.05
2022-11-12T01:14:20.842Z,6.01
2022-11-12T01:16:25.541Z,6.01
2022-11-12T01:18:28.546Z,5.96
2022-11-12T01:20:32.614Z,5.96
2022-11-12T01:22:35.257Z,5.97
2022-11-12T01:24:37.831Z,5.96
2022-11-12T01:26:41.424Z,5.97
2022-11-12T01:28:44.730Z,5.95
2022-11-12T01:30:47.329Z,5.93
2022-11-12T01:32:49.934Z,5.97
2022-11-12T01:34:53.278Z,5.91
2022-11-12T01:36:57.248Z,5.92
2022-11-12T01:38:59.910Z,5.89
2022-11-12T01:41:03.184Z,5.89
2022-11-12T01:43:12.951Z,5.83
2022-11-12T01:45:16.612Z,5.86
2022-11-12T01:47:22.441Z,5.88
2022-11-12T01:49:29.699Z,5.89
2022-11-12T01:51:35.542Z,5.89
2022-11-12T01:53:44.031Z,5.88
2022-11-12T01:55:46.816Z,5.88
2022-11-12T01:57:54.115Z,5.89
2022-11-12T02:00:01.858Z,5.86
2022-11-12T02:02:04.687Z,5.87
2022-11-12T02:04:07.308Z,5.89
2022-11-12T02:06:14.550Z,5.86
2022-11-12T02:08:17.318Z,5.77
2022-11-12T02:10:22.553Z,5.78
2022-11-12T02:12:42.458Z,5.76
2022-11-12T02:14:45.057Z,5.73
2022-11-12T02:16:49.892Z,5.74
2022-11-12T02:18:52.541Z,5.73
2022-11-12T02:20:56.636Z,5.77
2022-11-12T02:23:00.610Z,5.77
2022-11-12T02:25:03.263Z,5.76
2022-11-12T02:27:07.083Z,5.80
2022-11-12T02:29:09.970Z,5.88
2022-11-12T02:31:12.563Z,5.83
2022-11-12T02:33:15.276Z,5.80
2022-11-12T02:35:18.051Z,5.81
2022-11-12T02:37:20.649Z,5.82
2022-11-12T02:39:24.604Z,5.78
2022-11-12T02:41:27.271Z,5.78
2022-11-12T02:43:30.008Z,5.76
2022-11-12T02:45:33.064Z,5.75
2022-11-12T02:47:35.746Z,5.75
2022-11-12T02:49:38.332Z,5.76
2022-11-12T02:51:41.097Z,5.73
2022-11-12T02:53:43.694Z,5.66
2022-11-12T02:55:47.638Z,5.63
2022-11-12T02:57:52.966Z,5.66
2022-11-12T02:59:55.631Z,5.70
2022-11-12T03:01:58.233Z,5.59
2022-11-12T03:04:00.823Z,5.54
2022-11-12T03:06:03.429Z,5.53
2022-11-12T03:08:08.171Z,5.56
2022-11-12T03:10:11.043Z,5.60
2022-11-12T03:12:15.317Z,5.66
2022-11-12T03:14:17.978Z,5.59
2022-11-12T03:16:20.567Z,5.61
2022-11-12T03:18:23.278Z,5.59
2022-11-12T03:20:26.169Z,5.65
2022-11-12T03:22:28.785Z,5.64
2022-11-12T03:24:31.412Z,5.63
2022-11-12T03:26:35.944Z,5.61
2022-11-12T03:28:40.089Z,5.56
2022-11-12T03:30:44.754Z,5.50
2022-11-12T03:32:47.368Z,5.50
2022-11-12T03:34:55.146Z,5.48
2022-11-12T03:36:58.135Z,5.52
2022-11-12T03:39:00.781Z,5.56
2022-11-12T03:41:03.615Z,5.56
2022-11-12T03:43:06.261Z,5.59
2022-11-12T03:45:10.437Z,5.56
2022-11-12T03:47:13.014Z,5.60
2022-11-12T03:49:15.781Z,5.60
2022-11-12T03:51:19.086Z,5.57
2022-11-12T03:53:21.634Z,5.57
2022-11-12T03:55:25.689Z,5.54
2022-11-12T03:57:28.262Z,5.54
2022-11-12T03:59:30.842Z,5.50
2022-11-12T04:01:34.884Z,5.50
2022-11-12T04:03:37.544Z,5.49
2022-11-12T04:05:57.586Z,5.50
2022-11-12T04:08:18.563Z,5.49
2022-11-12T04:10:21.168Z,5.47
2022-11-12T04:12:52.819Z,5.43
2022-11-12T04:14:55.445Z,5.40
2022-11-12T04:17:16.792Z,5.41
2022-11-12T04:19:36.953Z,5.31
2022-11-12T04:21:55.572Z,5.34
2022-11-12T04:23:58.163Z,5.31
2022-11-12T04:26:18.290Z,5.36
2022-11-12T04:28:20.863Z,5.31
2022-11-12T04:30:22.494Z,5.26
2022-11-12T04:32:26.481Z,5.23
2022-11-12T04:34:32.129Z,5.26
2022-11-12T04:36:34.717Z,5.30
2022-11-12T04:38:37.355Z,5.31
2022-11-12T04:40:57.729Z,5.26
2022-11-12T04:43:18.369Z,5.23
2022-11-12T04:45:20.938Z,5.23
2022-11-12T04:47:23.574Z,5.22
2022-11-12T04:49:27.687Z,5.22
2022-11-12T04:51:44.200Z,5.14
2022-11-12T04:53:46.764Z,5.15
2022-11-12T04:55:50.908Z,5.17
2022-11-12T04:58:00.305Z,5.17
2022-11-12T05:00:03.944Z,5.16
2022-11-12T05:02:06.512Z,5.22
2022-11-12T05:04:09.217Z,5.23
2022-11-12T05:06:27.111Z,5.28
2022-11-12T05:08:29.738Z,5.28
2022-11-12T05:10:32.603Z,5.29
2022-11-12T05:12:35.258Z,5.31
2022-11-12T05:14:38.128Z,5.32
2022-11-12T05:16:40.791Z,5.35
2022-11-12T05:18:43.408Z,5.37
2022-11-12T05:20:46.009Z,5.39
2022-11-12T05:23:04.984Z,5.37
2022-11-12T05:25:10.009Z,5.38
2022-11-12T05:27:15.090Z,5.41
2022-11-12T05:29:17.688Z,5.42
2022-11-12T05:31:20.260Z,5.40
2022-11-12T05:33:22.847Z,5.44
2022-11-12T05:35:25.460Z,5.41
2022-11-12T05:37:28.128Z,5.37
2022-11-12T05:39:32.040Z,5.36
2022-11-12T05:41:57.970Z,5.39
2022-11-12T05:43:57.395Z,5.43
2022-11-12T05:45:59.968Z,5.43
2022-11-12T05:48:02.518Z,5.39
2022-11-12T05:50:05.634Z,5.42
2022-11-12T05:52:08.263Z,5.36
2022-11-12T05:54:11.552Z,5.34
2022-11-12T05:56:15.594Z,5.30
2022-11-12T05:58:18.175Z,5.34
2022-11-12T06:00:21.046Z,5.30
2022-11-12T06:02:23.707Z,5.26
2022-11-12T06:04:26.334Z,5.35
2022-11-12T06:06:28.905Z,5.34
2022-11-12T06:08:31.578Z,5.34
2022-11-12T06:10:34.685Z,5.35
2022-11-12T06:12:38.665Z,5.37
2022-11-12T06:14:41.216Z,5.39
2022-11-12T06:16:44.876Z,5.38
2022-11-12T06:18:49.314Z,5.40
2022-11-12T06:21:05.923Z,5.42
2022-11-12T06:23:08.623Z,5.37
2022-11-12T06:25:11.283Z,5.37
2022-11-12T06:27:13.845Z,5.32
2022-11-12T06:29:17.766Z,5.25
2022-11-12T06:31:20.967Z,5.21
2022-11-12T06:33:23.622Z,5.14
2022-11-12T06:35:26.458Z,5.11
2022-11-12T06:37:29.019Z,5.07
2022-11-12T06:39:31.632Z,5.07
2022-11-12T06:41:34.227Z,5.08
2022-11-12T06:43:37.443Z,5.03
2022-11-12T06:45:41.347Z,5.01
2022-11-12T06:47:43.923Z,4.96
2022-11-12T06:49:46.559Z,4.95
2022-11-12T06:51:51.395Z,4.97
2022-11-12T06:53:55.191Z,4.96
2022-11-12T06:56:02.910Z,4.98
2022-11-12T06:58:05.544Z,4.97
2022-11-12T07:00:09.560Z,5.00
2022-11-12T07:02:14.174Z,4.99
2022-11-12T07:04:16.750Z,5.00
2022-11-12T07:06:20.471Z,4.98
2022-11-12T07:08:23.238Z,5.01
2022-11-12T07:10:25.955Z,5.01
2022-11-12T07:12:28.585Z,4.90
2022-11-12T07:14:31.185Z,4.93
2022-11-12T07:16:34.216Z,4.91
2022-11-12T07:18:38.487Z,4.96
2022-11-12T07:20:41.039Z,4.95
2022-11-12T07:22:43.676Z,4.90
2022-11-12T07:24:46.308Z,4.92
2022-11-12T07:26:48.882Z,4.98
2022-11-12T07:28:53.179Z,5.06
2022-11-12T07:30:57.506Z,5.04
2022-11-12T07:33:00.068Z,5.02
2022-11-12T07:35:04.110Z,4.96
2022-11-12T07:37:06.677Z,4.99
2022-11-12T07:39:09.234Z,4.98
2022-11-12T07:41:14.677Z,5.00
2022-11-12T07:43:17.254Z,4.98
2022-11-12T07:45:19.845Z,4.98
2022-11-12T07:47:22.501Z,4.98
2022-11-12T07:49:27.152Z,4.92
2022-11-12T07:51:31.553Z,4.92
2022-11-12T07:53:34.884Z,4.95
2022-11-12T07:55:37.564Z,4.92
2022-11-12T07:57:40.134Z,5.00
2022-11-12T07:59:46.072Z,4.92
2022-11-12T08:01:49.171Z,4.92
2022-11-12T08:03:51.950Z,4.95
2022-11-12T08:05:54.544Z,4.98
2022-11-12T08:07:58.613Z,5.05
2022-11-12T08:10:01.259Z,5.07
2022-11-12T08:12:03.818Z,5.11
2022-11-12T08:14:06.609Z,5.13
2022-11-12T08:16:09.458Z,5.18
2022-11-12T08:18:12.046Z,5.24
2022-11-12T08:20:15.152Z,5.25
2022-11-12T08:22:17.786Z,5.29
2022-11-12T08:24:21.732Z,5.24
2022-11-12T08:26:25.812Z,5.26
2022-11-12T08:28:30.054Z,5.33
2022-11-12T08:30:32.861Z,5.32
2022-11-12T08:32:35.512Z,5.41
2022-11-12T08:34:41.275Z,5.44
2022-11-12T08:36:43.850Z,5.42
2022-11-12T08:38:47.047Z,5.47
2022-11-12T08:40:50.975Z,5.49
2022-11-12T08:42:58.864Z,5.51
2022-11-12T08:45:01.424Z,5.51
2022-11-12T08:47:04.124Z,5.56
2022-11-12T08:49:06.698Z,5.57
2022-11-12T08:51:09.379Z,5.60
2022-11-12T08:53:14.551Z,5.61
2022-11-12T08:55:17.128Z,5.66
2022-11-12T08:57:21.186Z,5.71
2022-11-12T08:59:23.775Z,5.74
2022-11-12T09:01:26.801Z,5.78
2022-11-12T09:03:29.461Z,5.84
2022-11-12T09:05:32.485Z,5.86
2022-11-12T09:07:49.367Z,5.94
2022-11-12T09:09:55.232Z,6.00
2022-11-12T09:11:57.811Z,6.06
2022-11-12T09:14:01.835Z,6.12
2022-11-12T09:16:06.167Z,6.17
2022-11-12T09:18:13.907Z,6.24
2022-11-12T09:20:16.509Z,6.24
2022-11-12T09:22:19.179Z,6.43
2022-11-12T09:24:21.786Z,6.39
2022-11-12T09:26:24.417Z,6.48
2022-11-12T09:28:27.488Z,6.40
2022-11-12T09:30:31.646Z,6.42
2022-11-12T09:32:34.457Z,6.43
2022-11-12T09:34:37.116Z,6.46
2022-11-12T09:36:40.153Z,6.48
2022-11-12T09:38:42.832Z,6.54
2022-11-12T09:41:17.063Z,6.52
2022-11-12T09:43:24.512Z,6.54
2022-11-12T09:45:31.225Z,6.59
2022-11-12T09:47:39.198Z,6.58
2022-11-12T09:49:48.903Z,6.58
2022-11-12T09:51:54.153Z,6.57
2022-11-12T09:53:58.713Z,6.59
2022-11-12T09:56:02.868Z,6.56
2022-11-12T09:58:10.513Z,6.66
2022-11-12T10:00:17.574Z,6.66
2022-11-12T10:02:28.775Z,6.72
2022-11-12T10:04:59.575Z,6.67
2022-11-12T10:07:08.206Z,6.69
2022-11-12T10:09:14.894Z,6.68
2022-11-12T10:12:07.112Z,6.70
2022-11-12T10:14:20.909Z,6.98
2022-11-12T10:16:43.991Z,6.87
2022-11-12T10:18:56.315Z,6.88
2022-11-12T10:21:07.250Z,6.88
2022-11-12T10:23:18.531Z,6.89
2022-11-12T10:25:21.871Z,6.87
2022-11-12T10:27:29.009Z,6.90
2022-11-12T10:29:37.296Z,6.92
2022-11-12T10:31:40.142Z,7.01
2022-11-12T10:33:42.821Z,6.95
2022-11-12T10:35:45.565Z,7.01
2022-11-12T10:37:52.804Z,7.00
2022-11-12T10:39:55.779Z,7.04
2022-11-12T10:42:05.089Z,7.06
2022-11-12T10:44:14.686Z,7.12
2022-11-12T10:46:20.793Z,7.17
2022-11-12T10:48:28.809Z,7.18
2022-11-12T10:50:37.470Z,7.21
2022-11-12T10:52:40.139Z,7.17
2022-11-12T10:54:44.160Z,7.22
2022-11-12T10:56:47.165Z,7.18
2022-11-12T10:59:10.790Z,7.19
2022-11-12T11:01:18.765Z,7.29
2022-11-12T11:03:24.257Z,7.27
2022-11-12T11:05:31.638Z,7.26
2022-11-12T11:07:34.343Z,7.32
2022-11-12T11:09:36.919Z,7.30
2022-11-12T11:11:49.846Z,7.37
2022-11-12T11:13:55.957Z,7.44
2022-11-12T11:16:01.805Z,7.37
2022-11-12T11:18:04.654Z,7.43
2022-11-12T11:20:17.999Z,7.44
2022-11-12T11:22:30.354Z,7.49
2022-11-12T11:24:40.732Z,7.48
2022-11-12T11:26:56.572Z,7.51
2022-11-12T11:29:07.876Z,7.53
2022-11-12T11:31:20.438Z,7.57
2022-11-12T11:33:33.597Z,7.61
2022-11-12T11:35:50.985Z,7.64
2022-11-12T11:38:07.002Z,7.68
2022-11-12T11:40:16.725Z,7.80
2022-11-12T11:42:42.177Z,7.80
2022-11-12T11:44:51.492Z,7.83
2022-11-12T11:47:07.357Z,7.92
2022-11-12T11:49:29.647Z,7.93
2022-11-12T11:51:44.582Z,7.98
2022-11-12T11:53:58.083Z,8.01
2022-11-12T11:56:04.886Z,8.02
2022-11-12T11:58:17.331Z,8.05
2022-11-12T12:00:21.828Z,8.08
2022-11-12T12:02:45.626Z,8.12
2022-11-12T12:04:50.758Z,8.15
2022-11-12T12:07:07.034Z,8.16
2022-11-12T12:09:24.487Z,8.22
2022-11-12T12:11:35.510Z,8.27
2022-11-12T12:13:56.496Z,8.29
2022-11-12T12:16:23.996Z,8.32
2022-11-12T12:18:38.467Z,8.36
2022-11-12T12:20:49.627Z,8.41
2022-11-12T12:22:58.640Z,8.41
2022-11-12T12:25:07.081Z,8.43
2022-11-12T12:27:13.447Z,8.47
2022-11-12T12:29:23.813Z,8.50
2022-11-12T12:31:31.186Z,8.53
2022-11-12T12:33:40.990Z,8.56
2022-11-12T12:35:53.650Z,8.58
2022-11-12T12:38:06.969Z,8.62
2022-11-12T12:40:19.087Z,8.66
2022-11-12T12:42:27.276Z,8.72
2022-11-12T12:44:57.673Z,8.80
2022-11-12T12:47:02.198Z,8.86
2022-11-12T12:49:07.368Z,8.87
2022-11-12T12:51:10.765Z,8.88
2022-11-12T12:53:33.174Z,8.93
2022-11-12T12:55:39.599Z,8.94
2022-11-12T12:57:42.306Z,8.98
2022-11-12T12:59:46.276Z,9.00
2022-11-12T13:01:57.835Z,8.98
2022-11-12T13:04:05.008Z,9.00
2022-11-12T13:06:09.061Z,9.05
2022-11-12T13:08:14.838Z,9.05
2022-11-12T13:10:51.536Z,9.06
2022-11-12T13:13:07.173Z,9.08
2022-11-12T13:15:16.980Z,9.11
2022-11-12T13:17:45.859Z,9.13
2022-11-12T13:20:32.388Z,9.13
2022-11-12T13:22:51.054Z,9.17
2022-11-12T13:25:05.894Z,9.18
2022-11-12T13:27:08.517Z,9.17
2022-11-12T13:29:41.962Z,9.19
2022-11-12T13:31:44.595Z,9.20
2022-11-12T13:33:48.206Z,9.24
2022-11-12T13:35:50.935Z,9.25
2022-11-12T13:37:56.284Z,9.26
2022-11-12T13:40:04.528Z,9.27
2022-11-12T13:42:32.175Z,9.32
2022-11-12T13:44:36.299Z,9.40
2022-11-12T13:46:39.031Z,9.40
2022-11-12T13:48:44.852Z,9.38
2022-11-12T13:50:54.017Z,9.37
2022-11-12T13:52:58.375Z,9.39
2022-11-12T13:55:08.034Z,9.40
2022-11-12T13:57:15.422Z,9.40
2022-11-12T13:59:20.291Z,9.40
2022-11-12T14:01:25.474Z,9.40
2022-11-12T14:03:32.202Z,9.42
2022-11-12T14:05:38.029Z,9.42
2022-11-12T14:07:50.368Z,9.44
2022-11-12T14:10:05.183Z,9.43
2022-11-12T14:12:35.629Z,9.42
2022-11-12T14:14:53.432Z,9.42
2022-11-12T14:17:05.795Z,9.43
2022-11-12T14:19:41.144Z,9.42
2022-11-12T14:21:43.990Z,9.41
2022-11-12T14:23:48.830Z,9.42
2022-11-12T14:25:54.829Z,9.40
2022-11-12T14:27:57.651Z,9.41
2022-11-12T14:30:14.878Z,9.39
2022-11-12T14:32:18.080Z,9.39
2022-11-12T14:34:21.439Z,9.39
2022-11-12T14:36:24.715Z,9.35
2022-11-12T14:38:31.621Z,9.35
2022-11-12T14:40:36.888Z,9.33
2022-11-12T14:42:41.113Z,9.33
2022-11-12T14:44:43.795Z,9.32
2022-11-12T14:46:51.078Z,9.32
2022-11-12T14:48:57.324Z,9.31
2022-11-12T14:51:04.933Z,9.32
2022-11-12T14:53:13.620Z,9.31
2022-11-12T14:55:20.005Z,9.30
2022-11-12T14:57:26.948Z,9.29
2022-11-12T14:59:32.708Z,9.27
2022-11-12T15:04:18.173Z,9.23
2022-11-12T15:06:29.463Z,9.21
2022-11-12T15:08:34.661Z,9.20
2022-11-12T15:10:39.160Z,9.19
2022-11-12T15:12:41.953Z,9.18
2022-11-12T15:14:46.517Z,9.15
2022-11-12T15:16:49.444Z,9.14
2022-11-12T15:19:05.964Z,9.12
2022-11-12T15:21:15.295Z,9.12
2022-11-12T15:23:19.657Z,9.10
2022-11-12T15:25:24.093Z,9.09
2022-11-12T15:27:36.096Z,9.09
2022-11-12T15:29:38.707Z,9.07
2022-11-12T15:31:46.855Z,9.08
2022-11-12T15:33:49.583Z,9.05
2022-11-12T15:35:57.699Z,9.02
2022-11-12T15:38:03.306Z,9.02
2022-11-12T15:40:12.527Z,9.00
2022-11-12T15:42:18.475Z,8.99
2022-11-12T15:44:21.302Z,8.96
2022-11-12T15:46:24.037Z,8.93
2022-11-12T15:48:28.064Z,8.89
2022-11-12T15:50:32.440Z,8.87
2022-11-12T15:52:35.036Z,8.86
2022-11-12T15:54:41.074Z,8.84
2022-11-12T15:56:44.625Z,8.82
2022-11-12T15:58:47.238Z,8.79
2022-11-12T16:00:49.941Z,8.75
2022-11-12T16:02:59.384Z,8.75
2022-11-12T16:05:03.390Z,8.72
2022-11-12T16:07:06.989Z,8.66
2022-11-12T16:09:09.627Z,8.63
2022-11-12T16:11:33.703Z,8.58
2022-11-12T16:13:37.534Z,8.55
2022-11-12T16:15:40.387Z,8.52
2022-11-12T16:17:43.047Z,8.48
2022-11-12T16:19:45.705Z,8.46
2022-11-12T16:21:50.461Z,8.43
2022-11-12T16:23:53.114Z,8.40
2022-11-12T16:25:55.885Z,8.34
2022-11-12T16:28:01.872Z,8.29
2022-11-12T16:30:05.320Z,8.27
2022-11-12T16:32:08.051Z,8.20
2022-11-12T16:34:10.865Z,8.18
2022-11-12T16:36:15.644Z,8.18
2022-11-12T16:38:19.902Z,8.17
2022-11-12T16:40:25.085Z,8.12
2022-11-12T16:42:27.675Z,8.12
2022-11-12T16:44:30.315Z,8.07
2022-11-12T16:46:40.066Z,7.98
2022-11-12T16:48:42.746Z,7.98
2022-11-12T16:50:45.430Z,7.95
2022-11-12T16:52:48.123Z,7.89
2022-11-12T16:54:52.287Z,7.85
2022-11-12T16:56:54.947Z,7.82
2022-11-12T16:58:57.537Z,7.86
2022-11-12T17:01:00.190Z,7.77
2022-11-12T17:03:02.788Z,7.69
2022-11-12T17:05:07.747Z,7.65
2022-11-12T17:07:10.363Z,7.67
2022-11-12T17:09:13.266Z,7.61
2022-11-12T17:11:17.267Z,7.61
2022-11-12T17:13:19.843Z,7.56
2022-11-12T17:15:22.446Z,7.53
2022-11-12T17:17:25.170Z,7.51
2022-11-12T17:19:27.840Z,7.46
2022-11-12T17:21:30.939Z,7.45
2022-11-12T17:23:33.541Z,7.43
2022-11-12T17:25:36.104Z,7.40
2022-11-12T17:27:40.031Z,7.39
2022-11-12T17:29:42.657Z,7.40
2022-11-12T17:31:48.355Z,7.37
2022-11-12T17:33:52.226Z,7.33
2022-11-12T17:35:54.822Z,7.33
2022-11-12T17:37:57.410Z,7.34
2022-11-12T17:40:00.023Z,7.31
2022-11-12T17:42:02.579Z,7.30
2022-11-12T17:44:07.397Z,7.30
2022-11-12T17:46:10.919Z,7.29
2022-11-12T17:48:13.527Z,7.27
2022-11-12T17:50:16.607Z,7.28
2022-11-12T17:52:19.205Z,7.21
2022-11-12T17:54:22.105Z,7.18
2022-11-12T17:56:25.068Z,7.18
2022-11-12T17:58:27.707Z,7.18
2022-11-12T18:00:31.762Z,7.15
2022-11-12T18:02:34.353Z,7.13
2022-11-12T18:04:37.121Z,7.15
2022-11-12T18:06:39.768Z,7.10
2022-11-12T18:08:43.489Z,7.09
2022-11-12T18:10:46.094Z,7.07
2022-11-12T18:12:48.649Z,7.01
2022-11-12T18:14:51.290Z,6.94
2022-11-12T18:16:56.870Z,6.90
2022-11-12T18:18:59.487Z,6.86
2022-11-12T18:21:02.086Z,6.82
2022-11-12T18:23:05.004Z,6.82
2022-11-12T18:25:08.695Z,6.79
2022-11-12T18:27:11.279Z,6.76
2022-11-12T18:29:13.941Z,6.76
2022-11-12T18:31:17.424Z,6.76
2022-11-12T18:33:21.319Z,6.68
2022-11-12T18:35:29.498Z,6.66
2022-11-12T18:37:32.526Z,6.64
2022-11-12T18:39:35.139Z,6.66
2022-11-12T18:41:37.723Z,6.69
2022-11-12T18:43:40.941Z,6.68
2022-11-12T18:45:54.017Z,6.60
2022-11-12T18:47:56.598Z,6.59
2022-11-12T18:50:04.208Z,6.62
2022-11-12T18:52:10.957Z,6.53
2022-11-12T18:54:13.809Z,6.45
2022-11-12T18:56:18.391Z,6.47
2022-11-12T18:58:20.985Z,6.41
2022-11-12T19:00:23.789Z,6.44
2022-11-12T19:02:26.383Z,6.39
2022-11-12T19:04:29.159Z,6.38
2022-11-12T19:06:33.351Z,6.31
2022-11-12T19:08:36.236Z,6.33
2022-11-12T19:10:38.960Z,6.29
2022-11-12T19:12:42.438Z,6.30
2022-11-12T19:14:45.038Z,6.36
2022-11-12T19:16:47.633Z,6.36
2022-11-12T19:18:51.668Z,6.43
2022-11-12T19:21:01.792Z,6.37
2022-11-12T19:23:05.682Z,6.37
2022-11-12T19:25:09.606Z,6.37
2022-11-12T19:27:12.226Z,6.34
2022-11-12T19:29:14.813Z,6.35
2022-11-12T19:31:19.465Z,6.32
2022-11-12T19:33:22.075Z,6.30
2022-11-12T19:35:24.633Z,6.25
2022-11-12T19:37:33.420Z,6.22
2022-11-12T19:39:38.038Z,6.22
2022-11-12T19:41:40.625Z,6.21
2022-11-12T19:43:43.629Z,6.25
2022-11-12T19:45:46.271Z,6.24
2022-11-12T19:47:51.941Z,6.25
2022-11-12T19:49:54.535Z,6.25
2022-11-12T19:51:57.163Z,6.27
2022-11-12T19:53:59.912Z,6.27
2022-11-12T19:56:06.595Z,6.22
2022-11-12T19:58:09.537Z,6.20
2022-11-12T20:00:13.577Z,6.17
2022-11-12T20:02:16.481Z,6.15
2022-11-12T20:04:24.009Z,6.16
2022-11-12T20:06:28.039Z,6.13
2022-11-12T20:08:30.825Z,6.14
2022-11-12T20:10:33.450Z,6.14
2022-11-12T20:12:40.033Z,6.14
2022-11-12T20:14:42.672Z,6.12
2022-11-12T20:16:45.276Z,6.12
2022-11-12T20:18:50.956Z,6.06
2022-11-12T20:20:56.182Z,6.16
2022-11-12T20:22:58.766Z,6.10
2022-11-12T20:25:01.811Z,6.03
2022-11-12T20:27:05.621Z,5.99
2022-11-12T20:29:09.602Z,5.98
2022-11-12T20:31:14.337Z,6.06
2022-11-12T20:33:17.174Z,5.99
2022-11-12T20:35:22.338Z,5.96
2022-11-12T20:37:25.726Z,5.93
2022-11-12T20:39:28.320Z,5.92
2022-11-12T20:41:31.323Z,5.89
2022-11-12T20:43:34.170Z,5.94
2022-11-12T20:45:38.163Z,5.95
2022-11-12T20:47:41.029Z,5.95
2022-11-12T20:49:43.613Z,5.97
2022-11-12T20:51:46.221Z,5.99
2022-11-12T20:53:49.125Z,5.98
2022-11-12T20:55:51.815Z,5.99
2022-11-12T20:57:54.381Z,6.01
2022-11-12T20:59:57.004Z,5.99
2022-11-12T21:02:01.268Z,6.01
2022-11-12T21:04:03.930Z,6.00
2022-11-12T21:06:08.662Z,5.95
2022-11-12T21:08:11.259Z,5.93
2022-11-12T21:10:14.141Z,5.89
2022-11-12T21:12:16.779Z,5.84
2022-11-12T21:14:19.674Z,5.82
2022-11-12T21:16:22.373Z,5.82
2022-11-12T21:18:28.327Z,5.82
2022-11-12T21:20:31.127Z,5.79
2022-11-12T21:22:33.715Z,5.78
2022-11-12T21:24:36.386Z,5.72
2022-11-12T21:26:39.022Z,5.74
2022-11-12T21:28:43.604Z,5.74
2022-11-12T21:30:46.181Z,5.73
2022-11-12T21:32:48.845Z,5.67
2022-11-12T21:34:52.807Z,5.71
2022-11-12T21:36:55.388Z,5.67
2022-11-12T21:38:58.517Z,5.62
2022-11-12T21:41:06.027Z,5.59
2022-11-12T21:43:08.592Z,5.58
2022-11-12T21:45:12.177Z,5.57
2022-11-12T21:47:15.290Z,5.53
2022-11-12T21:49:17.936Z,5.56
2022-11-12T21:51:23.931Z,5.58
2022-11-12T21:53:26.550Z,5.57
2022-11-12T21:55:29.130Z,5.59
2022-11-12T21:57:31.863Z,5.56
2022-11-12T21:59:34.666Z,5.58
2022-11-12T22:01:37.386Z,5.56
2022-11-12T22:03:40.470Z,5.54
2022-11-12T22:05:43.112Z,5.54
2022-11-12T22:07:47.154Z,5.51
2022-11-12T22:09:55.356Z,5.48
2022-11-12T22:11:59.329Z,5.45
2022-11-12T22:14:02.395Z,5.46
2022-11-12T22:16:06.824Z,5.46
2022-11-12T22:18:09.476Z,5.44
2022-11-12T22:20:12.726Z,5.37
2022-11-12T22:22:15.370Z,5.28
2022-11-12T22:24:19.347Z,5.27
2022-11-12T22:26:25.181Z,5.27
2022-11-12T22:28:28.185Z,5.29
2022-11-12T22:30:31.009Z,5.29
2022-11-12T22:32:33.603Z,5.29
2022-11-12T22:34:36.172Z,5.26
2022-11-12T22:36:38.816Z,5.24
2022-11-12T22:38:42.777Z,5.23
2022-11-12T22:40:46.732Z,5.20
2022-11-12T22:42:49.299Z,5.13
2022-11-12T22:44:51.870Z,5.10
2022-11-12T22:46:54.477Z,5.11
2022-11-12T22:48:59.142Z,5.15
2022-11-12T22:51:02.278Z,5.18
2022-11-12T22:53:04.945Z,5.17
2022-11-12T22:55:08.087Z,5.24
2022-11-12T22:57:12.034Z,5.21
2022-11-12T22:59:14.751Z,5.25
2022-11-12T23:01:22.659Z,5.21
2022-11-12T23:03:25.346Z,5.20
2022-11-12T23:05:27.972Z,5.22
2022-11-12T23:07:30.641Z,5.16
2022-11-12T23:09:33.268Z,5.15
2022-11-12T23:11:38.250Z,5.12
2022-11-12T23:13:42.351Z,5.14
2022-11-12T23:15:45.236Z,5.14
2022-11-12T23:17:47.807Z,5.13
2022-11-12T23:19:50.416Z,5.12
2022-11-12T23:21:53.298Z,5.15
2022-11-12T23:23:57.371Z,5.14
2022-11-12T23:26:05.184Z,5.11
2022-11-12T23:28:07.974Z,5.12
2022-11-12T23:30:13.000Z,5.13
2022-11-12T23:32:15.651Z,5.15
2022-11-12T23:34:18.229Z,5.17
2022-11-12T23:36:24.681Z,5.17
2022-11-12T23:38:27.546Z,5.21
2022-11-12T23:40:31.351Z,5.20
2022-11-12T23:42:34.067Z,5.14
2022-11-12T23:44:36.615Z,5.24
2022-11-12T23:46:40.534Z,5.23
2022-11-12T23:48:43.202Z,5.25
2022-11-12T23:50:46.618Z,5.26
2022-11-12T23:52:49.216Z,5.23
2022-11-12T23:54:51.784Z,5.25
2022-11-12T23:56:54.357Z,5.27
2022-11-12T23:58:56.945Z,5.20
